DW5950 Weather Reports


Display with metric or nautical units.
time (UTC)temp
F
wind
direction
speed
MPH
gust
MPH
rain 1hr
in
rain 24hr
in
rain mn
in
humidity
%
barometer
mb
20200704011632 72 120 2.0 5.0 0.00 0.00 0.00 76 1006.1
20200704010116 72 117 3.0 5.0 0.00 0.00 0.00 77 1006.0
20200704004553 71 153 2.0 4.0 0.00 0.00 0.00 78 1006.1
20200704003128 71 153 2.0 3.0 0.00 0.00 0.00 80 1006.1
20200704001606 70 160 2.0 3.0 0.00 0.00 0.00 80 1006.1
20200704000034 70 159 2.0 4.0 0.00 0.00 0.00 81 1005.9
20200703234617 70 160 0.0 2.0 0.00 0.00 0.00 81 1006.0
20200703233058 71 160 0.0 1.0 0.00 0.00 0.00 84 1005.8
20200703231559 71 161 0.0 2.0 0.00 0.00 0.00 84 1006.0
20200703230056 72 160 0.0 1.0 0.00 0.00 0.00 83 1005.9
20200703224609 72 160 1.0 3.0 0.00 0.00 0.00 82 1006.0
20200703223055 72 161 1.0 3.0 0.00 0.00 0.00 82 1006.0
20200703221555 72 162 0.0 0.0 0.00 0.00 0.00 80 1006.2
20200703220052 72 162 0.0 1.0 0.00 0.00 0.00 80 1006.2
20200703214559 73 162 1.0 2.0 0.00 0.00 0.00 81 1006.2
20200703213027 73 162 0.0 1.0 0.00 0.00 0.00 84 1006.2
20200703211547 73 162 1.0 2.0 0.00 0.00 0.00 87 1006.3
20200703210016 74 162 0.0 3.0 0.00 0.00 0.00 90 1006.4
20200703204657 74 162 0.0 0.0 0.00 0.00 0.00 90 1006.5
20200703203131 74 162 0.0 2.0 0.00 0.00 0.00 91 1006.3
20200703201627 74 136 2.0 5.0 0.00 0.00 0.00 92 1006.6
20200703200220 75 113 0.0 4.0 0.00 0.00 0.00 91 1006.6
20200703194708 75 120 1.0 4.0 0.00 0.00 0.00 91 1006.4
20200703193107 76 18 0.0 2.0 0.00 0.00 0.00 90 1006.5
20200703191602 76 41 1.0 4.0 0.00 0.00 0.00 91 1006.3
20200703190102 76 54 0.0 1.0 0.00 0.00 0.00 91 1006.4
20200703184646 76 54 0.0 2.0 0.00 0.00 0.00 91 1006.5
20200703183144 76 6 0.0 2.0 0.00 0.00 0.00 91 1006.5
20200703181556 76 5 0.0 3.0 0.00 0.00 0.00 91 1006.2
20200703180157 76 331 0.0 3.0 0.00 0.00 0.00 91 1006.2
20200703174740 76 6 2.0 4.0 0.00 0.00 0.00 91 1006.0
20200703173120 76 6 2.0 3.0 0.00 0.00 0.00 91 1005.8
20200703171639 76 13 1.0 2.0 0.00 0.00 0.00 91 1005.7
20200703170213 76 326 1.0 4.0 0.00 0.00 0.00 91 1005.7
20200703164631 76 313 1.0 4.0 0.00 0.00 0.00 91 1005.6
20200703163106 76 294 1.0 4.0 0.00 0.00 0.00 90 1005.6
20200703161545 77 325 1.0 5.0 0.00 0.00 0.00 89 1005.4
20200703160044 77 256 2.0 6.0 0.00 0.00 0.00 88 1005.4
20200703154553 78 301 2.0 6.0 0.00 0.00 0.00 87 1005.2
20200703153047 79 321 3.0 6.0 0.00 0.00 0.00 86 1005.0
20200703151608 79 323 3.0 7.0 0.00 0.00 0.00 85 1004.9
20200703150047 80 304 4.0 9.0 0.00 0.00 0.00 83 1004.8
20200703144600 81 305 4.0 8.0 0.00 0.00 0.00 81 1004.8
20200703143137 82 306 2.0 7.0 0.00 0.00 0.00 80 1004.7
20200703141630 82 300 6.0 9.0 0.00 0.00 0.00 79 1004.7
20200703140034 83 1 4.0 8.0 0.00 0.00 0.00 80 1004.7
20200703134529 84 342 4.0 10.0 0.00 0.00 0.00 78 1004.7
20200703133047 83 297 3.0 8.0 0.00 0.00 0.00 79 1004.8
20200703131610 83 304 4.0 7.0 0.00 0.00 0.00 79 1004.9
20200703124711 83 284 4.0 8.0 0.00 0.00 0.00 78 1004.9
20200703123109 83 338 5.0 11.0 0.00 0.00 0.00 78 1005.0
20200703121651 84 309 6.0 9.0 0.00 0.00 0.00 76 1005.0
20200703120314 84 306 4.0 7.0 0.00 0.00 0.00 77 1005.0
20200703114638 83 307 5.0 9.0 0.00 0.00 0.00 77 1005.0
20200703113201 84 287 5.0 9.0 0.00 0.00 0.00 77 1005.0
20200703111548 83 273 4.0 8.0 0.00 0.00 0.00 78 1005.1
20200703110104 83 306 3.0 10.0 0.00 0.00 0.00 79 1005.2
20200703104505 83 287 5.0 10.0 0.00 0.00 0.00 78 1005.2
20200703103017 82 285 4.0 12.0 0.00 0.00 0.00 78 1005.2
20200703101510 82 314 3.0 11.0 0.00 0.00 0.00 79 1005.2
20200703100006 82 301 6.0 13.0 0.00 0.00 0.00 78 1005.3
20200703093140 83 328 4.0 9.0 0.00 0.00 0.00 76 1005.2
20200703091621 83 300 5.0 12.0 0.00 0.00 0.00 76 1005.3
20200703090201 83 291 4.0 8.0 0.00 0.00 0.00 74 1005.1
20200703084755 82 270 6.0 10.0 0.00 0.00 0.00 74 1005.1
20200703083124 83 309 6.0 9.0 0.00 0.00 0.00 74 1005.0
20200703081646 82 352 3.0 11.0 0.00 0.00 0.00 75 1005.1
20200703080107 82 20 3.0 8.0 0.00 0.00 0.00 73 1005.1
20200703074550 82 239 4.0 9.0 0.00 0.00 0.00 74 1005.2
20200703073124 82 330 3.0 6.0 0.00 0.00 0.00 73 1005.1
20200703071601 82 300 4.0 7.0 0.00 0.00 0.00 73 1005.0
20200703070115 82 321 3.0 7.0 0.00 0.00 0.00 73 1005.0
20200703064627 83 300 1.0 5.0 0.00 0.00 0.00 71 1004.9
20200703063059 81 25 2.0 4.0 0.00 0.00 0.00 64 1004.8
20200703061559 81 60 1.0 4.0 0.00 0.00 0.00 68 1004.8
20200703060118 80 48 0.0 3.0 0.00 0.00 0.00 69 1004.9
20200703054546 80 1 0.0 2.0 0.00 0.00 0.00 74 1005.0
20200703053131 78 306 1.0 4.0 0.00 0.00 0.00 78 1005.0
20200703051525 77 9 1.0 3.0 0.00 0.00 0.00 80 1004.7
20200703044739 76 32 0.0 3.0 0.00 0.00 0.00 83 1004.8
20200703043146 76 18 2.0 4.0 0.00 0.00 0.00 83 1004.9
20200703041646 76 127 0.0 1.0 0.00 0.00 0.00 81 1004.8
20200703040113 72 126 0.0 0.0 0.00 0.00 0.00 83 1004.8
20200703034553 71 125 0.0 2.0 0.00 0.00 0.00 81 1004.8
20200703033105 70 126 0.0 3.0 0.00 0.00 0.00 79 1004.6
20200703031557 69 127 2.0 3.0 0.00 0.00 0.00 81 1004.5
20200703030053 69 120 2.0 5.0 0.00 0.00 0.00 77 1004.3
20200703024510 68 150 1.0 3.0 0.00 0.00 0.00 80 1004.2
20200703023009 68 150 2.0 3.0 0.00 0.00 0.00 77 1004.1
20200703021501 69 150 1.0 2.0 0.00 0.00 0.00 78 1003.9
20200703020241 68 151 0.0 2.0 0.00 0.00 0.00 74 1003.9
20200703014712 69 151 1.0 2.0 0.00 0.00 0.00 77 1003.7
20200703014514 69 151 1.0 2.0 0.00 0.00 0.00 78 1003.7
20200703013215 69 150 0.0 1.0 0.00 0.00 0.00 73 1003.7